Time;durP1;ratioP1;P1;durP2;ratioP2;P2;SDS_P1;SDS_P2;PMS_P1;PMS_P2;Temp;Humidity;BMP_temperature;BMP_pressure;BME280_temperature;BME280_humidity;BME280_pressure;Samples;Min_cycle;Max_cycle;Signal;HPM_P1;HPM_P2
2021/10/16 00:01:13;;;;;;;36.03;25.52;;;;;;;5.66;100.00;101551.75;1733279;82;21076;-86
2021/10/16 00:03:41;;;;;;;35.08;25.43;;;;;;;5.67;100.00;101545.22;1702419;82;22256;-87
2021/10/16 00:06:09;;;;;;;35.23;23.87;;;;;;;5.68;100.00;101541.73;1726915;82;21033;-86
2021/10/16 00:08:36;;;;;;;31.75;21.73;;;;;;;5.68;100.00;101530.58;1733722;82;21905;-87
2021/10/16 00:11:07;;;;;;;30.75;22.27;;;;;;;5.72;100.00;101524.83;1733826;82;21660;-88
2021/10/16 00:13:34;;;;;;;32.80;22.87;;;;;;;5.76;100.00;101527.66;1734236;82;21056;-86
2021/10/16 00:16:01;;;;;;;32.90;23.45;;;;;;;5.78;100.00;101516.82;1733859;81;21218;-87
2021/10/16 00:18:28;;;;;;;29.63;21.48;;;;;;;5.81;100.00;101520.55;1733635;81;21112;-87
2021/10/16 00:20:56;;;;;;;32.58;23.62;;;;;;;5.80;100.00;101501.63;1733675;82;21636;-87
2021/10/16 00:23:23;;;;;;;34.85;23.50;;;;;;;5.79;100.00;101496.53;1733805;82;21144;-86
2021/10/16 00:25:51;;;;;;;35.05;24.15;;;;;;;5.80;100.00;101500.34;1733649;82;21052;-88
2021/10/16 00:28:18;;;;;;;29.02;21.57;;;;;;;5.79;100.00;101491.37;1733824;82;21130;-86
2021/10/16 00:30:46;;;;;;;34.65;22.87;;;;;;;5.78;100.00;101493.56;1733603;82;21096;-87
2021/10/16 00:33:15;;;;;;;38.08;22.15;;;;;;;5.78;100.00;101493.56;1733833;82;21048;-87
2021/10/16 00:35:42;;;;;;;26.70;20.48;;;;;;;5.78;100.00;101494.85;1733567;82;21604;-87
2021/10/16 00:38:10;;;;;;;31.85;21.27;;;;;;;5.79;100.00;101493.95;1733949;82;21617;-88
2021/10/16 00:40:37;;;;;;;31.33;21.95;;;;;;;5.80;100.00;101495.64;1733844;82;21146;-88
2021/10/16 00:43:04;;;;;;;36.28;22.77;;;;;;;5.84;100.00;101497.17;1733724;82;21082;-88
2021/10/16 00:45:31;;;;;;;35.75;23.32;;;;;;;5.85;100.00;101492.40;1733764;82;21073;-87
2021/10/16 00:47:58;;;;;;;32.75;23.12;;;;;;;5.87;100.00;101497.06;1733721;81;21593;-88
2021/10/16 00:50:25;;;;;;;33.30;23.70;;;;;;;5.89;100.00;101488.77;1733640;82;21073;-88
2021/10/16 00:52:53;;;;;;;33.35;22.75;;;;;;;5.91;100.00;101488.73;1733960;82;21868;-87
2021/10/16 00:55:23;;;;;;;31.68;22.55;;;;;;;5.93;100.00;101479.17;1733559;82;21518;-87
2021/10/16 00:57:50;;;;;;;32.00;21.70;;;;;;;5.93;100.00;101485.17;1733632;81;21037;-87
2021/10/16 01:00:18;;;;;;;28.50;21.62;;;;;;;5.92;100.00;101481.36;1733671;81;21120;-87
2021/10/16 01:02:45;;;;;;;26.23;20.55;;;;;;;5.92;100.00;101480.07;1733357;82;21056;-87
2021/10/16 01:05:12;;;;;;;28.65;21.25;;;;;;;5.93;100.00;101478.70;1733691;81;21134;-86
2021/10/16 01:07:41;;;;;;;29.40;20.12;;;;;;;5.94;100.00;101475.22;1733542;81;21076;-87
2021/10/16 01:10:12;;;;;;;28.25;20.82;;;;;;;5.94;100.00;101475.22;1733519;82;21018;-87
2021/10/16 01:12:41;;;;;;;24.67;20.02;;;;;;;5.95;100.00;101467.00;1733824;82;21037;-88
2021/10/16 01:15:13;;;;;;;25.20;19.80;;;;;;;5.96;100.00;101469.54;1734062;82;21099;-88
2021/10/16 01:17:44;;;;;;;27.32;19.75;;;;;;;5.94;100.00;101463.59;1733695;82;21839;-88
2021/10/16 01:20:19;;;;;;;26.57;20.73;;;;;;;5.92;100.00;101464.09;1733990;82;21147;-87
2021/10/16 01:22:50;;;;;;;26.87;19.23;;;;;;;5.89;100.00;101459.05;1733572;82;21387;-86
2021/10/16 01:25:24;;;;;;;23.00;18.85;;;;;;;5.87;100.00;101466.05;1733754;81;21649;-86
2021/10/16 01:27:52;;;;;;;27.62;18.95;;;;;;;5.85;100.00;101462.67;1733630;82;21128;-87
2021/10/16 01:30:23;;;;;;;24.95;19.85;;;;;;;5.85;100.00;101466.09;1733680;81;21968;-87
2021/10/16 01:32:50;;;;;;;24.85;19.62;;;;;;;5.86;100.00;101457.90;1733652;82;21060;-87
2021/10/16 01:35:18;;;;;;;24.57;19.10;;;;;;;5.84;100.00;101459.27;1733759;82;21053;-87
2021/10/16 01:37:49;;;;;;;25.37;18.70;;;;;;;5.83;100.00;101468.35;1733256;81;21092;-88
2021/10/16 01:40:18;;;;;;;26.52;19.32;;;;;;;5.82;100.00;101468.81;1729140;81;21443;-87
2021/10/16 01:42:48;;;;;;;25.82;19.55;;;;;;;5.81;100.00;101463.25;1733824;82;21163;-87
2021/10/16 01:45:20;;;;;;;29.48;21.07;;;;;;;5.83;100.00;101458.87;1729344;82;21092;-87
2021/10/16 01:47:52;;;;;;;24.40;19.42;;;;;;;5.86;100.00;101454.02;1722114;82;21010;-87
2021/10/16 01:50:33;;;;;;;30.60;20.45;;;;;;;5.82;100.00;101448.57;1716469;83;21086;-88
2021/10/16 01:53:09;;;;;;;27.70;19.73;;;;;;;5.78;100.00;101458.20;1716883;83;21066;-88
2021/10/16 01:55:38;;;;;;;30.35;22.30;;;;;;;5.79;100.00;101457.77;1720195;83;21886;-88
2021/10/16 01:58:12;;;;;;;28.05;20.92;;;;;;;5.77;100.00;101452.64;1693652;83;21009;-88
2021/10/16 02:00:47;;;;;;;24.72;19.27;;;;;;;5.73;100.00;101446.40;1716649;83;21140;-88
2021/10/16 02:03:14;;;;;;;25.17;19.05;;;;;;;5.69;100.00;101440.48;1720544;83;21523;-88
2021/10/16 02:06:02;;;;;;;27.85;20.62;;;;;;;5.65;100.00;101439.77;1693377;83;21041;-86
2021/10/16 02:08:38;;;;;;;28.12;20.90;;;;;;;5.60;100.00;101431.38;1720545;83;21187;-86
2021/10/16 02:11:05;;;;;;;26.87;20.57;;;;;;;5.55;100.00;101437.20;1720437;83;21068;-88
2021/10/16 02:13:38;;;;;;;27.00;20.27;;;;;;;5.56;100.00;101429.84;1716678;83;21053;-87
2021/10/16 02:16:07;;;;;;;28.20;20.55;;;;;;;5.57;100.00;101439.71;1720740;83;21030;-87
2021/10/16 02:18:35;;;;;;;27.20;19.87;;;;;;;5.57;100.00;101445.70;1716547;83;21065;-86
2021/10/16 02:21:03;;;;;;;26.52;19.32;;;;;;;5.58;100.00;101447.86;1720168;83;21147;-86
2021/10/16 02:23:31;;;;;;;26.05;19.95;;;;;;;5.57;100.00;101439.25;1720294;83;21042;-87
2021/10/16 02:25:58;;;;;;;28.27;19.98;;;;;;;5.57;100.00;101443.13;1720424;83;21013;-84
2021/10/16 02:28:27;;;;;;;27.52;19.77;;;;;;;5.55;100.00;101437.20;1720621;83;21473;-86
2021/10/16 02:30:56;;;;;;;27.77;20.95;;;;;;;5.56;100.00;101441.47;1693386;83;20963;-87
2021/10/16 02:33:23;;;;;;;31.30;20.57;;;;;;;5.57;100.00;101437.13;1720412;83;21140;-86
2021/10/16 02:35:50;;;;;;;29.00;20.30;;;;;;;5.57;100.00;101445.70;1720539;83;21046;-87
2021/10/16 02:38:18;;;;;;;26.23;20.00;;;;;;;5.60;100.00;101447.35;1720559;83;21038;-86
2021/10/16 02:40:45;;;;;;;25.90;19.82;;;;;;;5.62;100.00;101444.23;1720755;83;21058;-87
2021/10/16 02:43:12;;;;;;;28.73;21.37;;;;;;;5.64;100.00;101443.29;1720686;83;21101;-87
2021/10/16 02:45:39;;;;;;;28.67;21.25;;;;;;;5.65;100.00;101435.90;1720769;83;21131;-87
2021/10/16 02:48:06;;;;;;;30.48;20.12;;;;;;;5.67;100.00;101441.02;1726166;82;21080;-86
2021/10/16 02:50:34;;;;;;;28.00;21.20;;;;;;;5.66;100.00;101435.00;1733690;82;21681;-86
2021/10/16 02:53:02;;;;;;;28.15;20.72;;;;;;;5.65;100.00;101439.77;1733775;82;21072;-87
2021/10/16 02:55:29;;;;;;;29.12;21.55;;;;;;;5.66;100.00;101435.00;1733798;82;21127;-87
2021/10/16 02:57:57;;;;;;;30.43;20.40;;;;;;;5.66;100.00;101435.00;1713494;81;21102;-86
2021/10/16 03:00:26;;;;;;;29.18;20.65;;;;;;;5.66;100.00;101428.53;1701707;82;21526;-86
2021/10/16 03:02:54;;;;;;;27.17;21.25;;;;;;;5.68;100.00;101426.73;1732897;82;20985;-87
2021/10/16 03:05:22;;;;;;;32.90;22.20;;;;;;;5.69;100.00;101428.86;1725366;81;21583;-86
2021/10/16 03:07:49;;;;;;;32.00;22.17;;;;;;;5.70;100.00;101427.95;1715551;81;21080;-87
2021/10/16 03:10:18;;;;;;;29.40;21.65;;;;;;;5.70;100.00;101427.95;1732284;81;21085;-87
2021/10/16 03:12:46;;;;;;;29.02;21.65;;;;;;;5.71;100.00;101429.64;1725553;81;21069;-87
2021/10/16 03:15:14;;;;;;;27.10;20.85;;;;;;;5.72;100.00;101439.55;1722546;81;21063;-87
2021/10/16 03:17:41;;;;;;;27.85;21.15;;;;;;;5.70;100.00;101431.83;1701772;82;21606;-86
2021/10/16 03:20:18;;;;;;;31.52;21.42;;;;;;;5.69;100.00;101429.72;1702284;82;21585;-88
2021/10/16 03:22:46;;;;;;;45.03;22.45;;;;;;;5.70;100.00;101427.95;1696666;82;22059;-85
2021/10/16 03:25:13;;;;;;;31.97;23.30;;;;;;;6.12;100.00;101430.13;1733783;82;21104;-85
2021/10/16 03:27:42;;;;;;;31.33;23.20;;;;;;;6.63;100.00;101427.88;1733625;82;21046;-86
2021/10/16 03:30:10;;;;;;;35.17;23.20;;;;;;;7.00;100.00;101420.16;1733574;82;21125;-86
2021/10/16 03:32:37;;;;;;;36.48;22.98;;;;;;;7.27;100.00;101418.00;1733813;82;22284;-86
2021/10/16 03:35:05;;;;;;;33.28;24.67;;;;;;;7.53;100.00;101414.13;1733436;82;21162;-86
2021/10/16 03:37:36;;;;;;;35.00;26.57;;;;;;;7.76;100.00;101410.83;1731265;81;21058;-87
2021/10/16 03:40:06;;;;;;;39.95;27.98;;;;;;;7.88;100.00;101403.74;1729354;83;21583;-86
2021/10/16 03:42:35;;;;;;;;;;;;;;;7.98;100.00;101400.65;1728185;81;21063;-87
2021/10/16 03:45:05;;;;;;;29.25;23.20;;;;;;;7.92;100.00;101400.97;1701954;81;20147;-86
2021/10/16 03:47:33;;;;;;;34.43;23.25;;;;;;;7.68;100.00;101397.42;1697548;81;21082;-86
2021/10/16 03:50:01;;;;;;;34.58;24.70;;;;;;;7.50;100.00;101402.60;1737412;81;21018;-87
2021/10/16 03:52:28;;;;;;;38.02;24.77;;;;;;;7.45;100.00;101403.30;1725445;81;21048;-87
2021/10/16 03:55:01;;;;;;;30.12;22.87;;;;;;;7.47;100.00;101402.77;1710019;81;21088;-87
2021/10/16 03:57:46;;;;;;;31.55;22.77;;;;;;;7.60;100.00;101404.73;1718558;81;21132;-86
2021/10/16 04:00:23;;;;;;;46.85;24.60;;;;;;;7.59;100.00;101406.51;1703697;82;21082;-86
2021/10/16 04:02:52;;;;;;;29.80;23.15;;;;;;;7.62;100.00;101404.22;1728773;81;21029;-87
2021/10/16 04:05:19;;;;;;;27.73;22.25;;;;;;;7.66;100.00;101394.05;1728404;81;21086;-87
2021/10/16 04:07:48;;;;;;;36.98;22.60;;;;;;;7.66;100.00;101391.02;1737639;81;21041;-86
2021/10/16 04:10:23;;;;;;;33.75;23.32;;;;;;;7.68;100.00;101396.12;1722563;81;21760;-87
2021/10/16 04:12:53;;;;;;;67.32;25.17;;;;;;;7.73;100.00;101392.86;1727211;81;21141;-85
2021/10/16 04:15:24;;;;;;;30.48;23.83;;;;;;;7.82;100.00;101396.72;1727209;81;21025;-87
2021/10/16 04:17:54;;;;;;;30.15;24.07;;;;;;;7.78;100.00;101397.34;1737815;81;21441;-86
2021/10/16 04:20:21;;;;;;;31.82;24.27;;;;;;;7.61;100.00;101394.28;1716165;81;21013;-87
2021/10/16 04:22:51;;;;;;;29.75;23.05;;;;;;;7.45;100.00;101392.11;1737056;81;21044;-86
2021/10/16 04:25:19;;;;;;;30.92;21.90;;;;;;;7.35;100.00;101387.81;1741768;81;21154;-86
2021/10/16 04:27:49;;;;;;;28.95;22.10;;;;;;;7.33;100.00;101394.84;1734869;81;21045;-86
2021/10/16 04:30:24;;;;;;;28.30;22.48;;;;;;;7.31;100.00;101390.19;1726389;81;21090;-87
2021/10/16 04:32:52;;;;;;;32.05;23.22;;;;;;;7.28;100.00;101396.36;1718580;81;22017;-87
2021/10/16 04:35:20;;;;;;;30.10;23.30;;;;;;;7.22;100.00;101396.20;1717780;81;21065;-87
2021/10/16 04:37:48;;;;;;;31.40;23.62;;;;;;;7.20;100.00;101399.78;1731749;81;21130;-86
2021/10/16 04:40:20;;;;;;;29.77;22.82;;;;;;;7.19;100.00;101396.33;1742472;81;21021;-88
2021/10/16 04:42:49;;;;;;;26.93;20.70;;;;;;;7.18;100.00;101395.95;1741944;81;22082;-88
2021/10/16 04:45:19;;;;;;;27.98;22.20;;;;;;;7.21;100.00;101395.81;1737087;81;21571;-87
2021/10/16 04:47:46;;;;;;;29.77;21.80;;;;;;;7.21;100.00;101396.28;1722024;81;21096;-87
2021/10/16 04:50:15;;;;;;;29.48;22.60;;;;;;;7.15;100.00;101392.23;1728732;80;21160;-88
2021/10/16 04:52:45;;;;;;;42.65;30.55;;;;;;;7.13;100.00;101394.05;1727742;81;21039;-88
2021/10/16 04:55:13;;;;;;;44.48;31.23;;;;;;;7.13;100.00;101397.94;1728711;82;21151;-88
2021/10/16 04:57:45;;;;;;;42.08;27.17;;;;;;;7.11;100.00;101397.16;1704874;82;21044;-89
2021/10/16 05:00:13;;;;;;;31.80;22.98;;;;;;;7.09;100.00;101385.59;1707096;82;21076;-87
2021/10/16 05:02:42;;;;;;;34.93;21.90;;;;;;;7.04;100.00;101382.39;1708591;82;21140;-88
2021/10/16 05:05:10;;;;;;;30.12;21.52;;;;;;;7.00;100.00;101386.49;1733156;82;21060;-87
2021/10/16 05:07:37;;;;;;;33.95;22.35;;;;;;;6.98;100.00;101386.55;1729824;82;21058;-87
2021/10/16 05:10:06;;;;;;;33.65;21.52;;;;;;;6.94;100.00;101376.80;1709759;82;21112;-88
2021/10/16 05:12:35;;;;;;;34.38;23.95;;;;;;;6.91;100.00;101372.22;1729407;82;21571;-88
2021/10/16 05:15:04;;;;;;;34.35;22.02;;;;;;;6.89;100.00;101377.95;1726439;82;21136;-87
2021/10/16 05:17:35;;;;;;;38.45;24.77;;;;;;;6.87;100.00;101375.41;1723685;81;21022;-86
2021/10/16 05:20:03;;;;;;;40.33;23.73;;;;;;;6.91;100.00;101375.66;1708783;82;21108;-87
2021/10/16 05:22:32;;;;;;;45.23;24.90;;;;;;;6.94;100.00;101370.31;1711425;82;21040;-87
2021/10/16 05:24:59;;;;;;;39.23;25.25;;;;;;;6.93;100.00;101369.93;1724455;82;21087;-88
2021/10/16 05:27:26;;;;;;;32.48;22.32;;;;;;;6.94;100.00;101369.49;1729738;81;21617;-87
2021/10/16 05:29:53;;;;;;;34.25;23.40;;;;;;;6.93;100.00;101365.22;1721527;82;21545;-87
2021/10/16 05:32:20;;;;;;;31.80;21.93;;;;;;;6.94;100.00;101363.84;1727036;82;21069;-88
2021/10/16 05:34:47;;;;;;;31.20;20.45;;;;;;;7.01;100.00;101364.87;1727863;81;21036;-87
2021/10/16 05:37:14;;;;;;;29.72;21.10;;;;;;;7.06;100.00;101370.19;1711121;82;21667;-88
2021/10/16 05:39:43;;;;;;;32.33;20.40;;;;;;;7.11;100.00;101369.96;1723930;82;21117;-89
2021/10/16 05:42:10;;;;;;;30.92;21.27;;;;;;;7.18;100.00;101366.16;1723938;82;21078;-89
2021/10/16 05:44:37;;;;;;;32.05;22.45;;;;;;;7.25;100.00;101367.53;1730290;82;21065;-89
2021/10/16 05:47:05;;;;;;;31.17;22.45;;;;;;;7.31;100.00;101359.92;1732850;82;21714;-87
2021/10/16 05:49:32;;;;;;;38.38;24.00;;;;;;;7.38;100.00;101359.17;1730770;82;21852;-86
2021/10/16 05:52:00;;;;;;;35.48;24.05;;;;;;;7.46;100.00;101353.14;1729502;83;22004;-87
2021/10/16 05:54:27;;;;;;;33.28;22.00;;;;;;;7.52;100.00;101345.05;1729586;82;21070;-87
2021/10/16 05:56:55;;;;;;;30.95;20.70;;;;;;;7.60;100.00;101352.89;1729310;81;21058;-87
2021/10/16 05:59:22;;;;;;;28.65;19.42;;;;;;;7.66;100.00;101347.39;1729502;81;21078;-87
2021/10/16 06:01:51;;;;;;;30.05;17.98;;;;;;;7.76;100.00;101342.59;1729325;83;21126;-87
2021/10/16 06:04:18;;;;;;;26.87;17.30;;;;;;;7.81;100.00;101346.60;1729454;83;21158;-86
2021/10/16 06:06:45;;;;;;;31.37;19.40;;;;;;;7.86;100.00;101343.77;1744764;80;21518;-86
2021/10/16 06:09:14;;;;;;;26.25;17.00;;;;;;;7.92;100.00;101346.52;1749667;80;21102;-87
2021/10/16 06:11:41;;;;;;;32.63;20.65;;;;;;;7.98;100.00;101344.45;1715087;81;21058;-85
2021/10/16 06:14:11;;;;;;;32.28;20.45;;;;;;;8.07;100.00;101347.00;1707966;82;21078;-85
2021/10/16 06:16:39;;;;;;;34.73;20.37;;;;;;;8.13;100.00;101344.08;1712160;82;21161;-86
2021/10/16 06:19:06;;;;;;;31.45;19.62;;;;;;;8.17;100.00;101344.30;1731127;80;21052;-86
2021/10/16 06:21:36;;;;;;;33.00;19.45;;;;;;;8.24;100.00;101338.78;1758579;80;21138;-86
2021/10/16 06:24:04;;;;;;;31.95;18.62;;;;;;;8.31;100.00;101342.27;1711418;82;21143;-85
2021/10/16 06:26:36;;;;;;;32.83;17.60;;;;;;;8.38;100.00;101344.05;1705137;82;21495;-86
2021/10/16 06:29:03;;;;;;;31.68;17.52;;;;;;;8.47;100.00;101343.59;1711560;82;21868;-87
2021/10/16 06:31:31;;;;;;;29.82;18.15;;;;;;;8.56;100.00;101342.71;1684822;83;21077;-88
2021/10/16 06:33:58;;;;;;;30.40;18.23;;;;;;;8.65;100.00;101343.51;1711829;82;21881;-89
2021/10/16 06:36:24;;;;;;;32.50;18.65;;;;;;;8.75;100.00;101345.98;1711486;82;21115;-86
2021/10/16 06:38:52;;;;;;;28.83;16.95;;;;;;;8.86;100.00;101360.10;1711419;82;21064;-88
2021/10/16 06:41:19;;;;;;;26.93;18.05;;;;;;;8.92;100.00;101350.22;1711545;82;21140;-89
2021/10/16 06:44:01;;;;;;;27.35;17.70;;;;;;;9.00;100.00;101343.30;1672577;82;21029;-86
2021/10/16 06:46:34;;;;;;;33.28;18.42;;;;;;;9.08;100.00;101341.11;1715321;80;21124;-89
2021/10/16 06:49:02;;;;;;;34.75;19.40;;;;;;;9.15;100.00;101338.52;1700096;82;21577;-86
2021/10/16 06:51:30;;;;;;;28.05;18.48;;;;;;;9.23;100.00;101330.74;1699745;83;21035;-86
2021/10/16 06:53:57;;;;;;;29.70;18.77;;;;;;;9.30;100.00;101336.78;1699970;83;21114;-88
2021/10/16 06:56:26;;;;;;;33.25;18.23;;;;;;;9.37;100.00;101334.67;1699658;83;21086;-87
2021/10/16 06:58:53;;;;;;;31.82;18.62;;;;;;;9.45;100.00;101330.33;1700068;83;21082;-86
2021/10/16 07:01:19;;;;;;;33.65;20.08;;;;;;;9.54;100.00;101327.64;1721173;83;21038;-87
2021/10/16 07:03:52;;;;;;;29.42;18.20;;;;;;;9.59;100.00;101318.64;1705338;83;21093;-86
2021/10/16 07:06:20;;;;;;;29.65;19.73;;;;;;;9.64;100.00;101317.07;1728952;83;21822;-87
2021/10/16 07:08:47;;;;;;;29.98;18.50;;;;;;;9.72;100.00;101313.55;1700926;83;21037;-87
2021/10/16 07:11:14;;;;;;;28.38;16.77;;;;;;;9.82;100.00;101310.36;1718174;83;20960;-86
2021/10/16 07:13:41;;;;;;;27.98;18.20;;;;;;;9.91;100.00;101309.80;1681519;83;21122;-86
2021/10/16 07:16:10;;;;;;;28.98;17.87;;;;;;;9.99;100.00;101310.17;1682480;82;21066;-86
2021/10/16 07:18:38;;;;;;;29.65;17.90;;;;;;;10.10;100.00;101309.05;1725286;83;21535;-87
2021/10/16 07:21:06;;;;;;;25.12;16.73;;;;;;;10.19;100.00;101310.72;1710208;83;21037;-87
2021/10/16 07:23:33;;;;;;;32.23;17.77;;;;;;;10.26;100.00;101301.59;1710665;83;21065;-86
2021/10/16 07:26:01;;;;;;;29.40;17.77;;;;;;;10.35;100.00;101298.41;1709178;83;21058;-86
2021/10/16 07:28:28;;;;;;;30.70;18.35;;;;;;;10.44;100.00;101297.01;1682217;83;21105;-87
2021/10/16 07:30:55;;;;;;;31.30;17.80;;;;;;;10.52;100.00;101293.45;1729402;81;21195;-86
2021/10/16 07:33:22;;;;;;;30.20;18.23;;;;;;;10.62;100.00;101290.25;1709909;83;21579;-87
2021/10/16 07:35:50;;;;;;;28.80;17.50;;;;;;;10.69;100.00;101291.08;1717254;82;21022;-87
2021/10/16 07:38:19;;;;;;;29.05;17.98;;;;;;;10.76;100.00;101288.06;1701602;83;21054;-86
2021/10/16 07:44:58;;;;;;;25.57;16.73;;;;;;;10.89;100.00;101275.44;1628258;86;39248;-85
2021/10/16 07:47:29;;;;;;;28.02;18.52;;;;;;;10.99;100.00;101282.17;1604527;87;21774;-86
2021/10/16 07:49:56;;;;;;;34.83;16.75;;;;;;;11.07;100.00;101281.65;1586738;89;22077;-87
2021/10/16 07:52:23;;;;;;;27.10;17.23;;;;;;;11.17;100.00;101271.47;1606764;87;21080;-86
2021/10/16 07:55:22;;;;;;;28.50;17.70;;;;;;;11.26;100.00;101263.00;1606911;87;21661;-87
2021/10/16 07:58:30;;;;;;;27.67;17.45;;;;;;;11.36;100.00;101272.36;1553822;90;21377;-86
2021/10/16 08:00:58;;;;;;;25.80;17.35;;;;;;;11.49;100.00;101266.66;1594202;87;20970;-86
2021/10/16 08:03:52;;;;;;;30.65;17.60;;;;;;;11.60;100.00;101262.00;1606488;87;21076;-87
2021/10/16 08:10:44;;;;;;;27.20;16.57;;;;;;;11.67;100.00;101258.02;1586958;87;21093;-86
2021/10/16 08:13:12;;;;;;;27.22;16.90;;;;;;;11.75;100.00;101260.11;1582083;89;21172;-87
2021/10/16 08:15:47;;;;;;;28.35;17.02;;;;;;;11.78;100.00;101256.45;1581523;89;21067;-86
2021/10/16 08:18:33;;;;;;;27.95;17.15;;;;;;;11.83;100.00;101253.03;1579465;89;21647;-88
2021/10/16 08:21:01;;;;;;;28.32;17.25;;;;;;;11.90;100.00;101248.23;1595339;87;21070;-88
2021/10/16 08:23:28;;;;;;;26.93;16.35;;;;;;;11.96;100.00;101250.39;1599434;89;21676;-87
2021/10/16 08:25:59;;;;;;;25.70;16.55;;;;;;;12.03;100.00;101250.34;1579675;87;21111;-86
2021/10/16 08:28:24;;;;;;;27.15;17.17;;;;;;;12.11;100.00;101252.42;1590717;88;21052;-88
2021/10/16 08:30:51;;;;;;;25.23;15.38;;;;;;;12.20;100.00;101249.16;1585696;87;21470;-88
2021/10/16 08:33:23;;;;;;;26.95;17.27;;;;;;;12.29;100.00;101243.73;1606904;87;21048;-89
2021/10/16 08:35:50;;;;;;;;;;;;;;;12.37;100.00;101246.63;1583880;89;21012;-88
2021/10/16 08:38:18;;;;;;;25.10;16.75;;;;;;;12.48;100.00;101244.52;1555063;89;21152;-89
2021/10/16 08:40:50;;;;;;;26.90;17.17;;;;;;;12.59;100.00;101240.67;1578310;89;21597;-91
2021/10/16 08:43:19;;;;;;;25.90;16.17;;;;;;;12.74;100.00;101236.06;1580199;89;21108;-89
2021/10/16 08:45:46;;;;;;;27.87;17.77;;;;;;;12.91;100.00;101233.97;1569087;90;21581;-89
2021/10/16 08:48:15;;;;;;;29.60;17.42;;;;;;;13.08;100.00;101232.23;1569802;90;21147;-89
2021/10/16 08:50:46;;;;;;;30.92;17.23;;;;;;;13.20;100.00;101221.80;1577208;88;22051;-88
2021/10/16 08:53:13;;;;;;;23.57;16.10;;;;;;;13.30;100.00;101217.49;1593503;88;21648;-89
2021/10/16 08:55:43;;;;;;;25.57;15.72;;;;;;;13.42;100.00;101223.59;1577127;90;22056;-88
2021/10/16 08:58:10;;;;;;;29.00;18.15;;;;;;;13.53;100.00;101222.30;1581313;88;21600;-89
2021/10/16 09:00:51;;;;;;;31.33;16.85;;;;;;;13.63;100.00;101224.20;1573839;90;21118;-89
2021/10/16 09:03:33;;;;;;;25.92;16.75;;;;;;;13.69;100.00;101225.86;1569382;90;21171;-87
2021/10/16 09:06:06;;;;;;;25.60;15.05;;;;;;;13.74;100.00;101228.09;1570777;89;21080;-88
2021/10/16 09:08:44;;;;;;;29.70;16.55;;;;;;;13.79;100.00;101227.73;1590131;88;21077;-86
2021/10/16 09:11:19;;;;;;;24.85;15.60;;;;;;;13.82;100.00;101226.19;1573148;90;21100;-88
2021/10/16 09:14:00;;;;;;;25.27;15.58;;;;;;;13.88;100.00;101223.92;1568797;90;21557;-89
2021/10/16 09:16:38;;;;;;;25.85;16.17;;;;;;;13.94;100.00;101219.14;1569375;90;21303;-87
2021/10/16 09:19:22;;;;;;;23.38;16.25;;;;;;;14.02;100.00;101225.42;1588997;88;21535;-89
2021/10/16 09:21:55;;;;;;;27.80;16.32;;;;;;;14.11;100.00;101222.56;1593425;88;21132;-88
2021/10/16 09:24:39;;;;;;;26.23;16.55;;;;;;;14.22;100.00;101216.45;1551782;91;21094;-88
2021/10/16 09:27:16;;;;;;;27.77;16.70;;;;;;;14.28;100.00;101213.32;1573941;89;21079;-88
2021/10/16 09:29:47;;;;;;;24.20;15.58;;;;;;;14.30;100.00;101205.36;1582308;89;21185;-89
2021/10/16 09:32:18;;;;;;;24.98;15.63;;;;;;;14.32;100.00;101202.11;1587188;87;21172;-88
2021/10/16 09:34:49;;;;;;;25.10;16.25;;;;;;;14.37;100.00;101201.27;1592415;89;21105;-88
2021/10/16 09:37:19;;;;;;;25.08;16.23;;;;;;;14.45;100.00;101196.23;1586960;89;21169;-88
2021/10/16 09:39:57;;;;;;;28.75;15.78;;;;;;;14.60;100.00;101182.33;1585483;89;22119;-87
2021/10/16 09:42:43;;;;;;;25.30;16.27;;;;;;;14.75;100.00;101178.94;1583392;89;21165;-88
2021/10/16 09:45:14;;;;;;;20.02;15.55;;;;;;;14.80;100.00;101175.44;1591656;88;21092;-87
2021/10/16 09:47:55;;;;;;;23.25;16.60;;;;;;;14.78;100.00;101168.67;1600160;87;21086;-88
2021/10/16 09:50:23;;;;;;;22.20;15.72;;;;;;;14.76;100.00;101164.88;1607702;87;21122;-88
2021/10/16 09:52:52;;;;;;;23.12;15.38;;;;;;;14.76;100.00;101162.26;1595477;88;21078;-87
2021/10/16 09:55:20;;;;;;;26.05;15.80;;;;;;;14.75;100.00;101161.05;1595387;88;21190;-87
2021/10/16 09:57:48;;;;;;;23.57;15.70;;;;;;;14.73;100.00;101161.69;1595340;88;21586;-88
2021/10/16 10:00:16;;;;;;;25.15;16.60;;;;;;;14.72;100.00;101156.91;1595733;88;21496;-88
2021/10/16 10:02:49;;;;;;;23.90;15.68;;;;;;;14.73;100.00;101153.33;1595377;88;21053;-88
2021/10/16 10:05:20;;;;;;;26.42;16.50;;;;;;;14.72;100.00;101152.16;1598294;87;21665;-88
2021/10/16 10:07:49;;;;;;;24.05;16.42;;;;;;;14.67;100.00;101145.99;1600713;87;21251;-88
2021/10/16 10:10:16;;;;;;;24.43;15.75;;;;;;;14.64;100.00;101139.19;1620525;87;21908;-89
2021/10/16 10:12:44;;;;;;;22.82;16.52;;;;;;;14.64;100.00;101137.03;1616845;87;21118;-88
2021/10/16 10:15:12;;;;;;;25.90;16.90;;;;;;;14.65;100.00;101125.13;1599852;88;21053;-87
2021/10/16 10:17:42;;;;;;;31.87;17.80;;;;;;;14.71;100.00;101125.09;1595466;88;21093;-87
2021/10/16 10:20:13;;;;;;;24.47;16.80;;;;;;;14.75;100.00;101128.29;1595757;88;21061;-88
2021/10/16 10:22:48;;;;;;;26.68;17.42;;;;;;;14.80;100.00;101126.94;1612340;87;21165;-88
2021/10/16 10:25:23;;;;;;;24.47;16.27;;;;;;;14.85;100.00;101121.80;1620466;87;21544;-87
2021/10/16 10:27:53;;;;;;;22.58;15.85;;;;;;;14.92;100.00;101120.31;1621157;87;21555;-88
2021/10/16 10:30:39;;;;;;;22.65;15.58;;;;;;;15.02;100.00;101117.72;1621100;87;21567;-88
2021/10/16 10:33:22;;;;;;;24.40;16.52;;;;;;;15.09;100.00;101107.05;1621087;87;21919;-87
2021/10/16 10:36:22;;;;;;;25.02;15.65;;;;;;;15.20;100.00;101111.36;1621036;87;21121;-87
2021/10/16 10:38:49;;;;;;;26.50;15.75;;;;;;;15.26;100.00;101104.29;1621158;87;21157;-88
2021/10/16 10:41:30;;;;;;;22.30;15.23;;;;;;;15.32;100.00;101099.81;1620984;87;21046;-88
2021/10/16 10:43:58;;;;;;;23.87;14.98;;;;;;;15.37;100.00;101090.23;1619953;87;21118;-88
2021/10/16 10:46:30;;;;;;;18.32;14.10;;;;;;;15.42;100.00;101084.89;1609569;87;22198;-88
2021/10/16 10:49:09;;;;;;;23.50;15.75;;;;;;;15.44;100.00;101082.97;1602590;87;21067;-87
2021/10/16 10:51:42;;;;;;;24.10;16.90;;;;;;;15.46;100.00;101080.23;1591013;87;22500;-88
2021/10/16 10:54:35;;;;;;;27.00;16.82;;;;;;;15.46;100.00;101074.48;1602824;87;21062;-89
2021/10/16 10:57:04;;;;;;;21.68;15.40;;;;;;;15.48;100.00;101070.91;1609785;86;21082;-88
2021/10/16 10:59:58;;;;;;;26.60;15.85;;;;;;;15.47;100.00;101068.74;1614220;87;21118;-86
2021/10/16 11:02:32;;;;;;;22.15;14.28;;;;;;;15.50;100.00;101074.23;1607848;87;21138;-88
2021/10/16 11:05:18;;;;;;;;;;;;;;;;;;;;;
2021/10/16 11:07:40;;;;;;;20.55;15.03;;;;;;;15.52;100.00;101067.87;1572458;88;21097;-89
2021/10/16 11:10:08;;;;;;;23.55;16.37;;;;;;;15.56;100.00;101074.98;1593322;88;21125;-90
2021/10/16 11:12:39;;;;;;;26.05;16.73;;;;;;;15.59;100.00;101068.13;1602597;87;21161;-89
2021/10/16 11:15:12;;;;;;;22.40;15.18;;;;;;;15.66;100.00;101069.73;1620983;86;21073;-90
2021/10/16 11:17:45;;;;;;;20.27;14.30;;;;;;;15.70;100.00;101069.33;1613535;87;21070;-88
2021/10/16 11:20:19;;;;;;;24.15;15.08;;;;;;;15.75;100.00;101072.36;1594649;87;21085;-88
2021/10/16 11:22:52;;;;;;;23.85;15.95;;;;;;;15.78;100.00;101066.02;1597614;87;21044;-88
2021/10/16 11:25:29;;;;;;;18.90;13.83;;;;;;;15.82;100.00;101072.64;1610696;87;21881;-88
2021/10/16 11:28:08;;;;;;;17.40;13.38;;;;;;;15.87;100.00;101076.20;1586702;87;21096;-87
2021/10/16 11:30:44;;;;;;;14.38;12.40;;;;;;;15.86;100.00;101066.66;1592223;87;21058;-88
2021/10/16 11:33:16;;;;;;;16.42;13.40;;;;;;;15.82;100.00;101064.77;1591371;87;21592;-86